createdAt,value
2019-04-24T00:01:26.098Z,99.99
2019-04-24T00:02:44.787Z,99.99
2019-04-24T00:04:38.256Z,99.99
2019-04-24T00:06:33.780Z,99.99
2019-04-24T00:07:41.839Z,99.99
2019-04-24T00:08:35.394Z,99.99
2019-04-24T00:09:50.401Z,99.99
2019-04-24T00:10:58.052Z,99.99
2019-04-24T00:12:55.089Z,99.99
2019-04-24T00:15:10.193Z,99.99
2019-04-24T00:17:01.227Z,99.99
2019-04-24T00:18:03.830Z,99.99
2019-04-24T00:19:10.725Z,99.99
2019-04-24T00:20:11.906Z,99.99
2019-04-24T00:21:03.530Z,99.99
2019-04-24T00:22:03.972Z,99.99
2019-04-24T00:23:10.928Z,99.99
2019-04-24T00:26:02.908Z,99.99
2019-04-24T00:30:10.533Z,99.99
2019-04-24T00:33:30.028Z,99.99
2019-04-24T00:36:38.191Z,99.99
2019-04-24T00:37:21.395Z,99.99
2019-04-24T00:38:44.746Z,99.99
2019-04-24T00:40:27.924Z,99.99
2019-04-24T00:41:32.224Z,99.99
2019-04-24T00:42:21.213Z,99.99
2019-04-24T00:43:36.647Z,99.99
2019-04-24T00:44:18.905Z,99.99
2019-04-24T00:45:53.649Z,99.99
2019-04-24T00:46:40.450Z,99.99
2019-04-24T00:47:39.484Z,99.99
2019-04-24T00:48:36.670Z,99.99
2019-04-24T00:50:51.867Z,99.99
2019-04-24T00:53:04.293Z,99.99
2019-04-24T00:53:05.433Z,99.99
2019-04-24T00:53:59.450Z,99.99
2019-04-24T00:54:58.889Z,99.99
2019-04-24T00:55:53.313Z,99.99
2019-04-24T00:56:53.775Z,99.99
2019-04-24T00:59:10.034Z,99.99
2019-04-24T00:59:46.033Z,99.99
2019-04-24T01:01:11.226Z,99.99
2019-04-24T01:02:18.665Z,99.99
2019-04-24T01:03:14.309Z,99.99
2019-04-24T01:04:15.095Z,99.99
2019-04-24T01:06:23.590Z,99.99
2019-04-24T01:07:22.850Z,99.99
2019-04-24T01:08:06.938Z,99.99
2019-04-24T01:09:21.197Z,99.99
2019-04-24T01:12:17.068Z,99.99
2019-04-24T01:13:19.480Z,99.99
2019-04-24T01:16:26.876Z,99.99
2019-04-24T01:18:24.897Z,99.99
2019-04-24T01:19:35.404Z,99.99
2019-04-24T01:21:30.742Z,99.99
2019-04-24T01:23:26.212Z,99.99
2019-04-24T01:24:28.556Z,99.99
2019-04-24T01:27:53.142Z,99.99
2019-04-24T01:28:41.968Z,99.99
2019-04-24T01:29:44.588Z,99.99
2019-04-24T01:31:38.129Z,99.99
2019-04-24T01:32:58.751Z,99.99
2019-04-24T01:33:41.739Z,99.99
2019-04-24T01:34:50.746Z,99.99
2019-04-24T01:37:06.910Z,99.99
2019-04-24T01:37:55.156Z,99.99
2019-04-24T01:39:03.915Z,99.99
2019-04-24T01:39:55.682Z,99.99
2019-04-24T01:41:03.138Z,99.99
2019-04-24T01:42:09.544Z,99.99
2019-04-24T01:43:13.753Z,99.99
2019-04-24T01:44:06.887Z,99.99
2019-04-24T01:45:19.902Z,99.99
2019-04-24T01:46:14.982Z,99.99
2019-04-24T01:47:14.537Z,99.99
2019-04-24T01:48:22.111Z,99.99
2019-04-24T01:49:10.435Z,99.99
2019-04-24T01:50:07.243Z,99.99
2019-04-24T01:51:16.795Z,99.99
2019-04-24T01:53:15.446Z,99.99
2019-04-24T01:54:20.267Z,99.99
2019-04-24T01:55:12.663Z,99.99
2019-04-24T01:56:30.371Z,99.99
2019-04-24T01:58:25.754Z,99.99
2019-04-24T02:00:38.990Z,99.99
2019-04-24T02:01:30.607Z,99.99
2019-04-24T02:03:28.497Z,99.99
2019-04-24T02:04:38.850Z,99.99
2019-04-24T02:05:26.403Z,99.99
2019-04-24T02:06:30.537Z,99.99
2019-04-24T02:08:50.465Z,99.99
2019-04-24T02:09:46.231Z,99.99
2019-04-24T02:10:50.698Z,99.99
2019-04-24T02:13:35.923Z,99.99
2019-04-24T02:14:48.405Z,99.99
2019-04-24T02:16:00.784Z,99.99
2019-04-24T02:16:55.764Z,99.99
2019-04-24T02:17:51.960Z,99.99
2019-04-24T02:18:49.914Z,99.99
2019-04-24T02:20:09.253Z,99.99
2019-04-24T02:20:49.523Z,99.99
2019-04-24T02:21:58.956Z,99.99
2019-04-24T02:23:10.980Z,99.99
2019-04-24T02:24:23.951Z,99.99
2019-04-24T02:25:13.906Z,99.99
2019-04-24T02:27:02.940Z,99.99
2019-04-24T02:28:16.933Z,99.99
2019-04-24T02:29:12.739Z,99.99
2019-04-24T02:30:20.406Z,99.99
2019-04-24T02:32:37.243Z,99.99
2019-04-24T02:34:18.431Z,99.99
2019-04-24T02:35:39.370Z,99.99
2019-04-24T02:36:34.213Z,99.99
2019-04-24T02:38:45.002Z,99.99
2019-04-24T02:39:42.899Z,99.99
2019-04-24T02:40:39.996Z,99.99
2019-04-24T02:41:57.512Z,99.99
2019-04-24T02:42:46.983Z,99.99
2019-04-24T02:43:46.505Z,99.99
2019-04-24T02:45:45.231Z,99.99
2019-04-24T02:46:41.661Z,99.99
2019-04-24T02:47:50.253Z,99.99
2019-04-24T02:50:58.315Z,99.99
2019-04-24T02:52:37.894Z,99.99
2019-04-24T02:53:47.531Z,99.99
2019-04-24T02:56:00.907Z,99.99
2019-04-24T02:58:21.340Z,99.99
2019-04-24T02:59:12.866Z,99.99
2019-04-24T03:00:06.244Z,99.99
2019-04-24T03:05:33.027Z,99.99
2019-04-24T03:09:21.898Z,99.99
2019-04-24T03:14:40.861Z,99.99
2019-04-24T03:15:29.190Z,99.99
2019-04-24T03:16:37.955Z,99.99
2019-04-24T03:17:28.798Z,99.99
2019-04-24T03:18:30.544Z,99.99
2019-04-24T03:20:45.733Z,99.99
2019-04-24T03:21:42.940Z,99.99
2019-04-24T03:32:41.453Z,99.99
2019-04-24T03:34:47.832Z,99.99
2019-04-24T03:35:14.821Z,99.99
2019-04-24T03:36:37.056Z,99.99
2019-04-24T03:41:36.565Z,99.99
2019-04-24T03:44:43.362Z,99.99
2019-04-24T03:47:21.478Z,99.99
2019-04-24T03:48:20.341Z,99.99
2019-04-24T03:50:44.516Z,99.99
2019-04-24T03:57:44.524Z,99.99
2019-04-24T03:58:40.134Z,99.99
2019-04-24T04:00:43.698Z,99.99
2019-04-24T04:01:46.530Z,99.99
2019-04-24T04:03:48.901Z,99.99
2019-04-24T04:04:43.306Z,99.99
2019-04-24T04:05:31.089Z,99.99
2019-04-24T04:06:53.536Z,99.99
2019-04-24T04:07:42.115Z,99.99
2019-04-24T04:09:01.592Z,99.99
2019-04-24T04:09:52.073Z,99.99
2019-04-24T04:13:44.676Z,99.99
2019-04-24T04:15:02.410Z,99.99
2019-04-24T04:15:51.896Z,99.99
2019-04-24T04:20:03.474Z,99.99
2019-04-24T04:22:18.401Z,99.99
2019-04-24T04:24:18.902Z,99.99
2019-04-24T04:25:11.782Z,99.99
2019-04-24T04:27:29.586Z,99.99
2019-04-24T04:28:33.412Z,99.99
2019-04-24T04:30:21.553Z,99.99
2019-04-24T04:31:46.881Z,99.99
2019-04-24T04:32:28.061Z,99.99
2019-04-24T04:34:30.625Z,99.99
2019-04-24T04:35:36.645Z,99.99
2019-04-24T04:36:41.291Z,99.99
2019-04-24T04:37:48.601Z,99.99
2019-04-24T04:40:46.225Z,99.99
2019-04-24T04:42:52.377Z,99.99
2019-04-24T04:45:56.637Z,99.99
2019-04-24T04:51:12.665Z,99.99
2019-04-24T04:52:05.795Z,99.99
2019-04-24T04:53:30.958Z,99.99
2019-04-24T04:59:45.446Z,99.99
2019-04-24T05:00:32.944Z,99.99
2019-04-24T05:02:44.795Z,99.99
2019-04-24T05:03:26.795Z,99.99
2019-04-24T05:10:57.893Z,99.99
2019-04-24T05:46:55.932Z,99.99
2019-04-24T05:51:54.647Z,99.99
2019-04-24T05:53:03.251Z,99.99
2019-04-24T05:54:04.022Z,99.99
2019-04-24T05:55:04.518Z,99.99
2019-04-24T05:56:28.508Z,99.99
2019-04-24T05:57:49.293Z,99.99
2019-04-24T05:59:17.340Z,99.99
2019-04-24T06:00:24.939Z,99.99
2019-04-24T06:01:17.665Z,99.99
2019-04-24T06:02:39.624Z,99.99
2019-04-24T06:03:26.109Z,99.99
2019-04-24T06:04:23.476Z,99.99
2019-04-24T06:06:38.886Z,99.99
2019-04-24T06:08:24.974Z,99.99
2019-04-24T06:10:39.847Z,99.99
2019-04-24T06:11:51.625Z,99.99
2019-04-24T06:12:37.000Z,99.99
2019-04-24T06:14:46.128Z,99.99
2019-04-24T06:16:54.430Z,99.99
2019-04-24T06:17:42.184Z,99.99
2019-04-24T06:18:48.079Z,99.99
2019-04-24T06:19:44.809Z,99.99
2019-04-24T06:21:01.858Z,99.99
2019-04-24T06:23:56.039Z,99.99
2019-04-24T06:29:16.086Z,99.99
2019-04-24T06:29:41.768Z,99.99
2019-04-24T06:34:00.976Z,99.99
2019-04-24T06:35:16.288Z,99.99
2019-04-24T06:36:03.652Z,99.99
2019-04-24T06:37:03.804Z,99.99
2019-04-24T06:37:55.866Z,99.99
2019-04-24T06:39:06.326Z,99.99
2019-04-24T06:40:21.408Z,99.99
2019-04-24T06:41:16.786Z,99.99
2019-04-24T06:41:57.601Z,99.99
2019-04-24T06:43:08.698Z,99.99
2019-04-24T06:43:52.071Z,99.99
2019-04-24T06:45:15.313Z,99.99
2019-04-24T06:45:57.371Z,99.99
2019-04-24T06:47:23.706Z,99.99
2019-04-24T06:50:13.191Z,99.99
2019-04-24T06:54:31.158Z,99.99
2019-04-24T06:55:23.959Z,99.99
2019-04-24T06:57:24.532Z,99.99
2019-04-24T06:58:12.950Z,99.99
2019-04-24T06:59:32.499Z,99.99
2019-04-24T07:00:37.586Z,99.99
2019-04-24T07:03:53.959Z,99.99
2019-04-24T07:04:50.146Z,99.99
2019-04-24T07:08:47.036Z,99.99
2019-04-24T07:09:45.323Z,99.99
2019-04-24T07:15:54.976Z,99.99
2019-04-24T07:18:06.280Z,99.99
2019-04-24T07:18:39.804Z,99.99
2019-04-24T07:19:56.167Z,99.99
2019-04-24T07:21:03.256Z,99.99
2019-04-24T07:21:58.781Z,99.99
2019-04-24T07:22:59.802Z,99.99
2019-04-24T07:24:03.558Z,99.99
2019-04-24T07:27:04.608Z,99.99
2019-04-24T07:28:07.757Z,99.99
2019-04-24T07:29:04.644Z,99.99
2019-04-24T07:30:30.266Z,99.99
2019-04-24T07:31:12.479Z,99.99
2019-04-24T07:32:07.497Z,99.99
2019-04-24T07:33:15.285Z,99.99
2019-04-24T07:35:25.200Z,99.99
2019-04-24T07:36:36.966Z,99.99
2019-04-24T07:37:39.009Z,99.99
2019-04-24T07:38:22.678Z,99.99
2019-04-24T07:39:32.475Z,99.99
2019-04-24T07:40:20.329Z,99.99
2019-04-24T07:41:33.819Z,99.99
2019-04-24T07:42:20.877Z,99.99
2019-04-24T07:43:47.324Z,99.99
2019-04-24T07:44:29.374Z,99.99
2019-04-24T07:45:50.412Z,99.99
2019-04-24T07:46:33.800Z,99.99
2019-04-24T07:49:52.837Z,99.99
2019-04-24T07:50:51.246Z,99.99
2019-04-24T07:53:56.150Z,99.99
2019-04-24T07:56:01.959Z,99.99
2019-04-24T07:57:45.479Z,99.99
2019-04-24T07:59:09.019Z,99.99
2019-04-24T08:00:03.701Z,99.99
2019-04-24T08:00:58.204Z,99.99
2019-04-24T08:02:17.611Z,99.99
2019-04-24T08:02:56.597Z,99.99
2019-04-24T08:05:14.005Z,99.99
2019-04-24T08:06:04.621Z,99.99
2019-04-24T08:09:06.529Z,99.99
2019-04-24T08:10:19.570Z,99.99
2019-04-24T08:10:58.209Z,99.99
2019-04-24T08:12:18.811Z,99.99
2019-04-24T08:14:30.513Z,99.99
2019-04-24T08:18:19.403Z,99.99
2019-04-24T08:19:48.397Z,99.99
2019-04-24T08:21:25.973Z,99.99
2019-04-24T08:22:29.680Z,99.99
2019-04-24T08:24:52.633Z,99.99
2019-04-24T08:25:33.718Z,99.99
2019-04-24T08:26:40.780Z,99.99
2019-04-24T08:27:42.753Z,99.99
2019-04-24T08:28:49.092Z,99.99
2019-04-24T08:29:44.900Z,99.99
2019-04-24T08:31:44.434Z,99.99
2019-04-24T08:35:58.020Z,99.99
2019-04-24T08:41:11.501Z,99.99
2019-04-24T08:44:00.342Z,99.99
2019-04-24T08:45:07.652Z,99.99
2019-04-24T08:45:59.101Z,99.99
2019-04-24T08:47:09.097Z,99.99
2019-04-24T08:48:13.995Z,99.99
2019-04-24T08:49:16.969Z,99.99
2019-04-24T08:50:24.970Z,99.99
2019-04-24T08:53:24.834Z,99.99
2019-04-24T08:54:10.830Z,99.99
2019-04-24T08:56:18.627Z,99.99
2019-04-24T08:57:25.478Z,99.99
2019-04-24T08:58:21.080Z,99.99
2019-04-24T09:00:24.231Z,99.99
2019-04-24T09:02:45.284Z,99.99
2019-04-24T09:03:55.643Z,99.99
2019-04-24T09:04:54.167Z,99.99
2019-04-24T09:05:42.337Z,99.99
2019-04-24T09:06:35.579Z,99.99
2019-04-24T09:07:50.476Z,99.99
2019-04-24T09:11:44.468Z,99.99
2019-04-24T09:13:02.012Z,99.99
2019-04-24T09:13:54.507Z,99.99
2019-04-24T09:14:43.674Z,99.99
2019-04-24T09:17:59.051Z,99.99
2019-04-24T09:18:59.588Z,99.99
2019-04-24T09:20:12.831Z,99.99
2019-04-24T09:22:00.960Z,99.99
2019-04-24T09:23:03.845Z,99.99
2019-04-24T09:24:31.936Z,99.99
2019-04-24T09:25:14.244Z,99.99
2019-04-24T09:27:13.165Z,99.99
2019-04-24T09:28:18.755Z,99.99
2019-04-24T09:30:26.142Z,99.99
2019-04-24T09:31:12.695Z,99.99
2019-04-24T09:32:36.277Z,99.99
2019-04-24T09:34:06.852Z,99.99
2019-04-24T09:35:43.606Z,99.99
2019-04-24T09:37:31.625Z,99.99
2019-04-24T09:38:34.638Z,99.99
2019-04-24T09:40:49.862Z,99.99
2019-04-24T09:41:39.685Z,99.99
2019-04-24T09:42:56.595Z,99.99
2019-04-24T09:44:43.006Z,99.99
2019-04-24T09:45:35.463Z,99.99
2019-04-24T09:47:58.799Z,99.99
2019-04-24T09:48:50.690Z,99.99
2019-04-24T09:49:43.278Z,99.99
2019-04-24T09:51:44.456Z,99.99
2019-04-24T09:53:12.859Z,99.99
2019-04-24T09:54:55.004Z,99.99
2019-04-24T09:55:51.316Z,99.99
2019-04-24T10:03:08.440Z,99.99
2019-04-24T10:04:04.778Z,99.99
2019-04-24T10:07:58.661Z,99.99
2019-04-24T10:15:47.836Z,99.99
2019-04-24T10:32:55.766Z,99.99
2019-04-24T10:33:56.946Z,99.99
2019-04-24T10:34:52.720Z,99.99
2019-04-24T10:35:56.448Z,99.99
2019-04-24T10:37:08.862Z,99.99
2019-04-24T10:38:18.910Z,99.99
2019-04-24T10:39:05.156Z,99.99
2019-04-24T10:40:16.790Z,99.99
2019-04-24T10:41:05.287Z,99.99
2019-04-24T10:42:02.053Z,99.99
2019-04-24T10:44:11.207Z,99.99
2019-04-24T10:46:08.055Z,99.99
2019-04-24T10:47:23.460Z,99.99
2019-04-24T10:48:04.971Z,99.99
2019-04-24T10:49:22.493Z,99.99
2019-04-24T10:51:16.885Z,99.99
2019-04-24T10:52:11.349Z,99.99
2019-04-24T10:53:20.951Z,99.99
2019-04-24T10:54:26.936Z,99.99
2019-04-24T10:55:31.033Z,99.99
2019-04-24T10:56:24.359Z,99.99
2019-04-24T10:57:33.479Z,99.99
2019-04-24T10:58:22.213Z,99.99
2019-04-24T10:59:37.535Z,99.99
2019-04-24T11:00:36.730Z,99.99
2019-04-24T11:02:36.402Z,99.99
2019-04-24T11:03:52.568Z,99.99
2019-04-24T11:04:44.947Z,99.99
2019-04-24T11:07:53.895Z,99.99
2019-04-24T11:10:00.063Z,99.99
2019-04-24T11:10:47.479Z,99.99
2019-04-24T11:11:57.771Z,99.99
2019-04-24T11:13:06.409Z,99.99
2019-04-24T11:13:55.721Z,99.99
2019-04-24T11:14:55.155Z,99.99
2019-04-24T11:15:55.665Z,99.99
2019-04-24T11:17:11.144Z,99.99
2019-04-24T11:18:00.244Z,99.99
2019-04-24T11:20:04.672Z,99.99
2019-04-24T11:21:31.175Z,99.99
2019-04-24T11:24:11.232Z,99.99
2019-04-24T11:25:20.257Z,99.99
2019-04-24T11:28:28.135Z,99.99
2019-04-24T11:29:07.347Z,99.99
2019-04-24T11:30:24.121Z,99.99
2019-04-24T11:31:20.166Z,99.99
2019-04-24T11:32:24.785Z,99.99
2019-04-24T11:33:30.458Z,99.99
2019-04-24T11:36:46.549Z,99.99
2019-04-24T11:37:23.691Z,99.99
2019-04-24T11:38:41.119Z,99.99
2019-04-24T11:39:43.135Z,99.99
2019-04-24T11:41:43.175Z,99.99
2019-04-24T11:42:39.382Z,99.99
2019-04-24T11:43:37.846Z,99.99
2019-04-24T11:44:32.707Z,99.99
2019-04-24T11:45:44.720Z,99.99
2019-04-24T11:47:06.018Z,99.99
2019-04-24T11:48:08.554Z,99.99
2019-04-24T11:50:10.026Z,99.99
2019-04-24T11:51:10.201Z,99.99
2019-04-24T11:52:02.259Z,99.99
2019-04-24T11:53:03.081Z,99.99
2019-04-24T11:53:50.173Z,99.99
2019-04-24T11:55:09.437Z,99.99
2019-04-24T11:55:58.303Z,99.99
2019-04-24T11:58:14.586Z,99.99
2019-04-24T11:59:40.478Z,99.99
2019-04-24T12:00:53.170Z,99.99
2019-04-24T12:02:59.500Z,99.99
2019-04-24T12:04:06.251Z,99.99
2019-04-24T12:05:23.338Z,99.99
2019-04-24T12:06:07.137Z,99.99
2019-04-24T12:09:04.443Z,99.99
2019-04-24T12:10:24.765Z,99.99
2019-04-24T12:11:25.688Z,99.99
2019-04-24T12:12:07.767Z,99.99
2019-04-24T12:14:21.191Z,99.99
2019-04-24T12:15:22.428Z,99.99
2019-04-24T12:16:25.056Z,99.99
2019-04-24T12:17:25.445Z,99.99
2019-04-24T12:18:33.476Z,99.99
2019-04-24T12:19:41.272Z,99.99
2019-04-24T12:20:30.511Z,99.99
2019-04-24T12:22:27.440Z,99.99
2019-04-24T12:23:38.988Z,99.99
2019-04-24T12:24:29.388Z,99.99
2019-04-24T12:25:48.061Z,99.99
2019-04-24T12:26:34.079Z,99.99
2019-04-24T12:27:42.800Z,99.99
2019-04-24T12:28:51.194Z,99.99
2019-04-24T12:29:41.869Z,99.99
2019-04-24T12:30:52.283Z,99.99
2019-04-24T12:31:45.062Z,99.99
2019-04-24T12:34:50.757Z,99.99
2019-04-24T12:35:39.432Z,99.99
2019-04-24T12:37:03.448Z,99.99
2019-04-24T12:37:57.660Z,99.99
2019-04-24T12:39:56.143Z,99.99
2019-04-24T12:40:53.812Z,99.99
2019-04-24T12:42:02.079Z,99.99
2019-04-24T12:42:59.610Z,99.99
2019-04-24T12:44:01.741Z,99.99
2019-04-24T12:44:51.154Z,99.99
2019-04-24T12:46:09.576Z,99.99
2019-04-24T12:47:18.059Z,99.99
2019-04-24T12:48:00.079Z,99.99
2019-04-24T12:50:03.584Z,99.99
2019-04-24T12:52:06.197Z,99.99
2019-04-24T12:53:25.207Z,99.99
2019-04-24T12:54:21.442Z,99.99
2019-04-24T12:55:21.638Z,99.99
2019-04-24T12:56:27.525Z,99.99
2019-04-24T12:57:27.520Z,99.99
2019-04-24T12:59:38.188Z,99.99
2019-04-24T13:00:35.276Z,99.99
2019-04-24T13:01:26.520Z,99.99
2019-04-24T13:02:29.796Z,99.99
2019-04-24T13:03:37.037Z,99.99
2019-04-24T13:05:35.350Z,99.99
2019-04-24T13:06:25.835Z,99.99
2019-04-24T13:07:56.298Z,99.99
2019-04-24T13:08:54.168Z,99.99
2019-04-24T13:09:49.353Z,99.99
2019-04-24T13:10:56.433Z,97.38
2019-04-24T13:11:51.546Z,93.62
2019-04-24T13:12:58.568Z,91.36
2019-04-24T13:13:59.615Z,88.93
2019-04-24T13:14:57.148Z,86.57
2019-04-24T13:15:53.291Z,84.39
2019-04-24T13:17:56.463Z,81.87
2019-04-24T13:18:49.453Z,80.80
2019-04-24T13:20:19.803Z,78.27
2019-04-24T13:22:32.973Z,76.89
2019-04-24T13:26:57.217Z,73.64
2019-04-24T13:28:14.686Z,74.41
2019-04-24T13:31:10.706Z,71.96
2019-04-24T13:34:04.924Z,71.38
2019-04-24T13:36:41.962Z,70.45
2019-04-24T13:38:28.359Z,69.02
2019-04-24T13:41:56.039Z,69.85
2019-04-24T13:43:03.599Z,72.60
2019-04-24T13:46:05.156Z,75.52
2019-04-24T13:47:04.640Z,75.37
2019-04-24T13:48:14.488Z,72.83
2019-04-24T13:50:13.171Z,71.56
2019-04-24T13:52:37.206Z,70.67
2019-04-24T13:55:21.874Z,69.24
2019-04-24T13:56:12.124Z,70.03
2019-04-24T13:58:38.838Z,71.18
2019-04-24T13:59:23.563Z,73.37
2019-04-24T14:00:31.021Z,74.21
2019-04-24T14:01:35.407Z,73.68
2019-04-24T14:02:54.254Z,73.84
2019-04-24T14:03:36.522Z,74.87
2019-04-24T14:04:22.496Z,76.90
2019-04-24T14:05:44.092Z,78.21
2019-04-24T14:08:57.800Z,80.74
2019-04-24T14:10:08.635Z,81.90
2019-04-24T14:11:05.782Z,82.43
2019-04-24T14:12:37.792Z,82.72
2019-04-24T14:15:02.098Z,81.18
2019-04-24T14:16:01.380Z,82.39
2019-04-24T14:17:01.276Z,82.10
2019-04-24T14:18:03.814Z,82.10
2019-04-24T14:19:03.867Z,82.26
2019-04-24T14:20:13.162Z,83.22
2019-04-24T14:20:56.481Z,84.09
2019-04-24T14:22:00.689Z,83.89
2019-04-24T14:25:14.714Z,85.49
2019-04-24T14:29:12.358Z,88.33
2019-04-24T14:30:15.564Z,88.57
2019-04-24T14:31:10.721Z,89.54
2019-04-24T14:33:20.593Z,90.69
2019-04-24T14:45:31.184Z,92.14
2019-04-24T14:49:27.992Z,94.64
2019-04-24T14:51:24.375Z,97.14
2019-04-24T14:52:33.971Z,97.91
2019-04-24T14:53:27.953Z,99.73
2019-04-24T14:54:29.939Z,99.99
2019-04-24T14:56:32.790Z,99.99
2019-04-24T14:57:31.455Z,99.99
2019-04-24T14:58:34.634Z,99.99
2019-04-24T14:59:43.607Z,99.99
2019-04-24T15:03:03.730Z,99.99
2019-04-24T15:08:55.828Z,99.99
2019-04-24T15:09:53.059Z,99.99
2019-04-24T15:12:08.779Z,99.99
2019-04-24T15:15:14.555Z,99.99
2019-04-24T15:17:14.300Z,99.99
2019-04-24T15:19:27.507Z,99.99
2019-04-24T15:21:27.649Z,99.99
2019-04-24T15:25:37.031Z,99.99
2019-04-24T15:26:25.208Z,99.99
2019-04-24T15:27:28.806Z,99.99
2019-04-24T15:28:29.132Z,99.99
2019-04-24T15:30:31.063Z,99.99
2019-04-24T15:31:35.846Z,99.99
2019-04-24T15:32:35.327Z,99.99
2019-04-24T15:33:46.385Z,99.99
2019-04-24T15:34:44.866Z,99.99
2019-04-24T15:37:02.901Z,99.99
2019-04-24T15:37:47.598Z,99.99
2019-04-24T15:38:50.285Z,99.99
2019-04-24T15:40:54.069Z,99.99
2019-04-24T15:43:02.335Z,99.99
2019-04-24T15:43:47.763Z,99.99
2019-04-24T15:45:01.008Z,99.99
2019-04-24T15:47:12.978Z,99.99
2019-04-24T15:51:23.180Z,99.99
2019-04-24T15:51:35.391Z,99.99
2019-04-24T15:52:36.081Z,99.99
2019-04-24T15:53:36.658Z,99.99
2019-04-24T15:54:37.275Z,99.99
2019-04-24T15:55:37.853Z,99.99
2019-04-24T15:56:38.482Z,99.99
2019-04-24T16:00:24.046Z,99.99
2019-04-24T16:01:26.108Z,99.99
2019-04-24T16:02:32.575Z,99.99
2019-04-24T16:03:31.638Z,99.99
2019-04-24T16:04:36.396Z,99.99
2019-04-24T16:05:03.384Z,99.99
2019-04-24T16:06:03.976Z,99.99
2019-04-24T16:07:05.005Z,99.99
2019-04-24T16:08:06.167Z,99.99
2019-04-24T16:09:06.714Z,99.99
2019-04-24T16:10:07.414Z,99.99
2019-04-24T16:11:08.029Z,99.99
2019-04-24T16:12:08.570Z,99.99
2019-04-24T16:13:11.971Z,99.99
2019-04-24T16:14:23.987Z,99.99
2019-04-24T16:15:40.479Z,99.99
2019-04-24T16:16:43.008Z,99.99
2019-04-24T16:17:41.127Z,99.99
2019-04-24T16:20:02.177Z,99.99
2019-04-24T16:21:06.843Z,99.99
2019-04-24T16:21:45.316Z,99.99
2019-04-24T16:22:54.682Z,99.99
2019-04-24T16:25:01.624Z,99.99
2019-04-24T16:26:09.924Z,99.99
2019-04-24T16:27:08.034Z,99.99
2019-04-24T16:28:09.647Z,99.99
2019-04-24T16:29:04.672Z,99.99
2019-04-24T16:30:09.103Z,99.99
2019-04-24T16:31:05.030Z,99.99
2019-04-24T16:32:21.899Z,99.99
2019-04-24T16:34:13.604Z,99.99
2019-04-24T16:36:38.430Z,99.99
2019-04-24T16:37:16.334Z,99.99
2019-04-24T16:38:22.384Z,99.99
2019-04-24T16:39:10.972Z,99.99
2019-04-24T16:40:29.917Z,99.99
2019-04-24T16:42:28.987Z,99.99
2019-04-24T16:44:26.282Z,99.99
2019-04-24T16:47:49.692Z,99.99
2019-04-24T16:48:31.550Z,99.99
2019-04-24T16:49:44.101Z,99.99
2019-04-24T16:51:55.235Z,99.99
2019-04-24T16:52:36.264Z,99.99
2019-04-24T16:53:39.702Z,99.99
2019-04-24T16:54:29.405Z,99.99
2019-04-24T16:55:43.177Z,99.99
2019-04-24T16:56:45.241Z,99.99
2019-04-24T16:57:58.001Z,99.99
2019-04-24T16:58:41.348Z,99.99
2019-04-24T16:59:28.804Z,99.99
2019-04-24T17:01:07.452Z,99.99
2019-04-24T17:03:02.279Z,99.99
2019-04-24T17:04:11.306Z,99.99
2019-04-24T17:05:08.291Z,99.99
2019-04-24T17:08:09.277Z,99.99
2019-04-24T17:09:15.800Z,99.99
2019-04-24T17:10:03.648Z,99.99
2019-04-24T17:11:11.393Z,99.99
2019-04-24T17:12:03.523Z,99.99
2019-04-24T17:13:16.483Z,99.99
2019-04-24T17:18:15.499Z,99.99
2019-04-24T17:19:29.798Z,99.99
2019-04-24T17:20:20.266Z,99.99
2019-04-24T17:23:16.248Z,99.99
2019-04-24T17:26:20.118Z,99.99
2019-04-24T17:27:26.579Z,99.99
2019-04-24T17:28:32.721Z,99.99
2019-04-24T17:29:33.623Z,99.99
2019-04-24T17:33:31.356Z,99.99
2019-04-24T17:34:42.753Z,99.99
2019-04-24T17:35:38.181Z,99.99
2019-04-24T17:36:25.382Z,99.99
2019-04-24T17:37:13.492Z,99.99
2019-04-24T17:38:14.083Z,99.99
2019-04-24T17:39:14.654Z,99.99
2019-04-24T17:40:15.229Z,99.99
2019-04-24T17:41:24.291Z,99.99
2019-04-24T17:42:31.636Z,99.99
2019-04-24T17:43:57.108Z,99.99
2019-04-24T17:44:58.943Z,99.99
2019-04-24T17:45:53.980Z,99.99
2019-04-24T17:47:04.118Z,99.99
2019-04-24T17:47:57.189Z,99.99
2019-04-24T17:48:56.960Z,99.99
2019-04-24T17:50:10.808Z,99.99
2019-04-24T17:50:59.404Z,99.99
2019-04-24T17:52:09.271Z,99.99
2019-04-24T17:53:08.264Z,99.99
2019-04-24T17:54:04.903Z,99.99
2019-04-24T17:55:07.849Z,99.99
2019-04-24T17:56:03.145Z,99.99
2019-04-24T17:57:07.034Z,99.99
2019-04-24T17:58:41.473Z,99.99
2019-04-24T17:59:42.971Z,99.99
2019-04-24T18:00:43.885Z,99.99
2019-04-24T18:01:44.524Z,99.99
2019-04-24T18:02:45.134Z,99.99
2019-04-24T18:03:45.704Z,99.99
2019-04-24T18:04:46.274Z,99.99
2019-04-24T18:05:46.845Z,99.99
2019-04-24T18:06:47.418Z,99.99
2019-04-24T18:07:47.997Z,99.99
2019-04-24T18:08:48.562Z,99.99
2019-04-24T18:09:49.136Z,99.99
2019-04-24T18:10:51.472Z,99.99
2019-04-24T18:11:52.321Z,99.99
2019-04-24T18:12:52.837Z,99.99
2019-04-24T18:13:53.455Z,99.99
2019-04-24T18:14:54.028Z,99.99
2019-04-24T18:15:54.600Z,99.99
2019-04-24T18:16:55.227Z,99.99
2019-04-24T18:17:55.844Z,99.99
2019-04-24T18:18:56.416Z,99.99
2019-04-24T18:19:57.138Z,99.99
2019-04-24T18:20:57.709Z,99.99
2019-04-24T18:21:58.282Z,99.99
2019-04-24T18:22:58.854Z,99.99
2019-04-24T18:23:59.430Z,99.99
2019-04-24T18:24:59.999Z,99.99
2019-04-24T18:26:02.113Z,99.99
2019-04-24T18:27:01.652Z,99.99
2019-04-24T18:28:03.385Z,99.99
2019-04-24T18:29:03.953Z,99.99
2019-04-24T18:30:05.236Z,99.99
2019-04-24T18:31:05.370Z,99.99
2019-04-24T18:32:05.928Z,99.99
2019-04-24T18:33:07.337Z,99.99
2019-04-24T18:34:07.887Z,99.99
2019-04-24T18:35:08.458Z,99.99
2019-04-24T18:36:09.740Z,99.99
2019-04-24T18:37:11.703Z,99.99
2019-04-24T18:38:15.906Z,99.99
2019-04-24T18:39:13.432Z,99.99
2019-04-24T18:40:14.033Z,99.99
2019-04-24T18:41:16.770Z,99.99
2019-04-24T18:42:16.233Z,99.99
2019-04-24T18:43:16.809Z,99.99
2019-04-24T18:44:17.390Z,99.99
2019-04-24T18:45:17.955Z,99.99
2019-04-24T18:46:18.528Z,99.99
2019-04-24T18:47:19.100Z,99.99
2019-04-24T18:48:19.671Z,99.99
2019-04-24T18:49:21.610Z,99.99
2019-04-24T18:50:23.108Z,99.99
2019-04-24T18:51:23.373Z,99.99
2019-04-24T18:52:24.005Z,99.99
2019-04-24T18:53:24.656Z,99.99
2019-04-24T18:54:25.230Z,99.99
2019-04-24T18:55:25.849Z,99.99
2019-04-24T18:56:26.421Z,99.99
2019-04-24T18:57:26.990Z,99.99
2019-04-24T18:58:27.569Z,99.99
2019-04-24T18:59:28.173Z,99.99
2019-04-24T19:00:28.794Z,99.99
2019-04-24T19:01:29.364Z,99.99
2019-04-24T19:02:29.933Z,99.99
2019-04-24T19:03:31.340Z,99.99
2019-04-24T19:04:31.923Z,99.99
2019-04-24T19:05:32.491Z,99.99
2019-04-24T19:06:33.691Z,99.99
2019-04-24T19:07:34.294Z,99.99
2019-04-24T19:08:34.864Z,99.99
2019-04-24T19:09:35.435Z,99.99
2019-04-24T19:10:36.109Z,99.99
2019-04-24T19:11:36.715Z,99.99
2019-04-24T19:12:37.282Z,99.99
2019-04-24T19:13:37.852Z,99.99
2019-04-24T19:14:38.477Z,99.99
2019-04-24T19:15:39.044Z,99.99
2019-04-24T19:16:39.664Z,99.99
2019-04-24T19:17:40.235Z,99.99
2019-04-24T19:18:42.341Z,99.99
2019-04-24T19:19:42.373Z,99.99
2019-04-24T19:20:42.976Z,99.99
2019-04-24T19:21:43.544Z,99.99
2019-04-24T19:22:44.113Z,99.99
2019-04-24T19:23:44.679Z,99.99
2019-04-24T19:24:45.248Z,99.99
2019-04-24T19:25:45.817Z,99.99
2019-04-24T19:26:46.386Z,99.99
2019-04-24T19:27:46.953Z,99.99
2019-04-24T19:28:47.674Z,99.99
2019-04-24T19:29:48.241Z,99.99
2019-04-24T19:30:48.808Z,99.99
2019-04-24T19:31:49.428Z,99.99
2019-04-24T19:32:51.686Z,99.99
2019-04-24T19:33:51.649Z,99.99
2019-04-24T19:34:52.285Z,99.99
2019-04-24T19:35:52.869Z,99.99
2019-04-24T19:36:53.444Z,99.99
2019-04-24T19:37:54.019Z,99.99
2019-04-24T19:38:54.597Z,99.99
2019-04-24T19:39:55.165Z,99.99
2019-04-24T19:40:55.739Z,99.99
2019-04-24T19:41:56.363Z,99.99
2019-04-24T19:42:56.942Z,99.99
2019-04-24T19:43:57.516Z,99.99
2019-04-24T19:44:58.089Z,99.99
2019-04-24T19:45:58.662Z,99.99
2019-04-24T19:46:59.238Z,99.99
2019-04-24T19:48:01.356Z,99.99
2019-04-24T19:49:02.291Z,99.99
2019-04-24T19:50:07.454Z,99.99
2019-04-24T19:51:03.543Z,99.99
2019-04-24T19:52:04.167Z,99.99
2019-04-24T19:53:14.020Z,99.99
2019-04-24T19:54:06.304Z,99.99
2019-04-24T19:55:06.929Z,99.99